Flight Track Log - Related Links

Times and Time Zones

All times are in EDT time to prevent confusion due to time zone crossing. See the KAP4721 flight status page for this flight to view local times or setup timezone preferences in your user account.


Time Position Orientation Groundspeed Altitude Reporting Facility
EDT Latitude Longitude Course Direction KTS MPH feet Rate Location/Type
Tue 08:06:06 AM 18.2167 -63.1667 251° West 150 173 3,500  Level San Juan Center
Tue 08:07:06 AM 18.2000 -63.2167 251° West 160 184 4,200 645 Climbing San Juan Center
Tue 08:08:07 AM 18.2000 -63.2667 270° West 160 184 4,800 645 Climbing San Juan Center
Tue 08:09:07 AM 18.1833 -63.3167 251° West 160 184 5,500 600 Climbing San Juan Center
Tue 08:10:07 AM 18.1667 -63.3667 251° West 160 184 6,000 248 Climbing San Juan Center
Tue 08:11:08 AM 18.1667 -63.4167 270° West 180 207 6,000  Level San Juan Center
Tue 08:12:08 AM 18.1500 -63.4667 251° West 180 207 6,000  Level San Juan Center
Tue 08:13:08 AM 18.1500 -63.5167 270° West 180 207 6,000  Level San Juan Center
Tue 08:14:08 AM 18.1333 -63.5667 251° West 180 207 6,000  Level San Juan Center
Tue 08:15:09 AM 18.1333 -63.6333 270° West 180 207 6,000  Level San Juan Center
Tue 08:16:09 AM 18.1333 -63.6833 270° West 200 230 6,000  Level San Juan Center
Tue 08:17:09 AM 18.1333 -63.7333 270° West 190 219 6,000  Level San Juan Center
Tue 08:18:10 AM 18.1500 -63.8000 285° West 190 219 6,000  Level San Juan Center
Tue 08:19:10 AM 18.1500 -63.8500 270° West 190 219 6,000  Level San Juan Center
Tue 08:20:10 AM 18.1667 -63.9000 289° West 190 219 6,000  Level San Juan Center
Tue 08:21:11 AM 18.1667 -63.9667 270° West 190 219 6,000  Level San Juan Center
Tue 08:22:11 AM 18.1833 -64.0167 289° West 190 219 6,000  Level San Juan Center
Tue 08:23:11 AM 18.1833 -64.0667 270° West 190 219 6,000  Level San Juan Center
Tue 08:24:12 AM 18.2000 -64.1333 285° West 200 230 6,000  Level San Juan Center
Tue 08:25:12 AM 18.2000 -64.1833 270° West 190 219 6,000  Level San Juan Center
Tue 08:26:12 AM 18.2167 -64.2333 289° West 190 219 6,000  Level San Juan Center
Tue 08:27:12 AM 18.2167 -64.3000 270° West 190 219 6,000  Level San Juan Center
Tue 08:28:13 AM 18.2167 -64.3500 270° West 190 219 6,000  Level San Juan Center
Tue 08:29:13 AM 18.2167 -64.4000 270° West 190 219 6,000  Level San Juan Center
Tue 08:30:13 AM 18.2333 -64.4667 285° West 190 219 6,000  Level San Juan Center
Tue 08:31:14 AM 18.2333 -64.5167 270° West 190 219 6,000  Level San Juan Center
Tue 08:32:14 AM 18.2500 -64.5667 289° West 190 219 6,000  Level San Juan Center
Tue 08:33:14 AM 18.2500 -64.6167 270° West 190 219 6,000  Level San Juan Center
Tue 08:34:15 AM 18.2667 -64.6833 285° West 190 219 6,000  Level San Juan Center
Tue 08:35:15 AM 18.2667 -64.7333 270° West 190 219 6,000  Level San Juan Center
Tue 08:36:15 AM 18.2833 -64.8000 285° West 190 219 6,000  Level San Juan Center
Tue 08:37:16 AM 18.2833 -64.8500 270° West 180 207 6,000  Level San Juan Center
Tue 08:38:16 AM 18.3000 -64.9000 289° West 190 219 6,000  Level San Juan Center
Tue 08:39:16 AM 18.3000 -64.9500 270° West 190 219 6,000  Level San Juan Center
Tue 08:40:17 AM 18.3167 -65.0167 285° West 200 230 6,000  Level San Juan Center
Tue 08:41:17 AM 18.3167 -65.0667 270° West 200 230 6,000  Level San Juan Center
Tue 08:42:17 AM 18.3167 -65.1167 270° West 190 219 6,000  Level San Juan Center
Tue 08:43:18 AM 18.3333 -65.1833 285° West 190 219 6,000 -50 Level San Juan Center
Tue 08:44:18 AM 18.3333 -65.2333 270° West 180 207 5,900 -100 Descending San Juan Center
Tue 08:46:00 AM 18.2946 -65.2893 282° West  Level FlightAware Approximate
Tue 08:53:00 AM 18.3557 -65.5838 289° West  Level FlightAware Approximate
Tue 08:54:00 AM 18.3667 -65.6249 270° West  Level FlightAware Approximate
Tue 08:55:00 AM 18.3727 -65.6674 281° West  Level FlightAware Approximate
Tue 08:56:00 AM 18.3802 -65.7098 281° West  Level FlightAware Approximate
Tue 08:57:00 AM 18.3877 -65.7521 281° West  Level FlightAware Approximate
Tue 08:58:00 AM 18.3952 -65.7945 281° West  Level FlightAware Approximate
Tue 08:59:00 AM 18.4026 -65.8369 281° West  Level FlightAware Approximate

Login

Don't have an account? Register now (free) for customized features, flight alerts, and more!